sensor_id;sensor_type;location;lat;lon;timestamp;pressure;altitude;pressure_sealevel;temperature;humidity
23229;BME280;11783;50.350;6.576;2023-04-28T00:00:49;95924.09;;;11.57;78.75
23229;BME280;11783;50.350;6.576;2023-04-28T00:03:15;95917.97;;;11.56;78.29
23229;BME280;11783;50.350;6.576;2023-04-28T00:05:40;95904.34;;;11.52;78.87
23229;BME280;11783;50.350;6.576;2023-04-28T00:08:06;95911.53;;;11.52;78.91
23229;BME280;11783;50.350;6.576;2023-04-28T00:10:31;95901.41;;;11.49;79.57
23229;BME280;11783;50.350;6.576;2023-04-28T00:12:57;95908.63;;;11.53;79.95
23229;BME280;11783;50.350;6.576;2023-04-28T00:15:22;95905.91;;;11.48;79.90
23229;BME280;11783;50.350;6.576;2023-04-28T00:17:48;95899.81;;;11.48;80.32
23229;BME280;11783;50.350;6.576;2023-04-28T00:20:13;95891.53;;;11.44;80.17
23229;BME280;11783;50.350;6.576;2023-04-28T00:22:39;95884.63;;;11.48;79.70
23229;BME280;11783;50.350;6.576;2023-04-28T00:25:05;95881.97;;;11.48;79.41
23229;BME280;11783;50.350;6.576;2023-04-28T00:27:32;95892.06;;;11.46;79.41
23229;BME280;11783;50.350;6.576;2023-04-28T00:29:57;95889.97;;;11.48;81.17
23229;BME280;11783;50.350;6.576;2023-04-28T00:32:23;95884.13;;;11.51;81.14
23229;BME280;11783;50.350;6.576;2023-04-28T00:34:48;95878.22;;;11.44;80.05
23229;BME280;11783;50.350;6.576;2023-04-28T00:37:13;95884.06;;;11.41;79.97
23229;BME280;11783;50.350;6.576;2023-04-28T00:39:38;95877.41;;;11.39;80.02
23229;BME280;11783;50.350;6.576;2023-04-28T00:42:06;95868.91;;;11.42;80.31
23229;BME280;11783;50.350;6.576;2023-04-28T00:44:31;95866.22;;;11.37;80.17
23229;BME280;11783;50.350;6.576;2023-04-28T00:46:57;95858.25;;;11.37;80.25
23229;BME280;11783;50.350;6.576;2023-04-28T00:49:24;95851.84;;;11.38;81.06
23229;BME280;11783;50.350;6.576;2023-04-28T00:51:49;95848.41;;;11.37;80.32
23229;BME280;11783;50.350;6.576;2023-04-28T00:54:15;95842.28;;;11.37;80.24
23229;BME280;11783;50.350;6.576;2023-04-28T00:56:42;95847.34;;;11.38;81.66
23229;BME280;11783;50.350;6.576;2023-04-28T00:59:07;95849.94;;;11.33;80.67
23229;BME280;11783;50.350;6.576;2023-04-28T01:01:34;95842.75;;;11.29;81.10
23229;BME280;11783;50.350;6.576;2023-04-28T01:03:59;95838.19;;;11.24;81.55
23229;BME280;11783;50.350;6.576;2023-04-28T01:06:26;95840.34;;;11.27;81.06
23229;BME280;11783;50.350;6.576;2023-04-28T01:08:52;95839.28;;;11.28;80.23
23229;BME280;11783;50.350;6.576;2023-04-28T01:11:18;95838.44;;;11.22;80.65
23229;BME280;11783;50.350;6.576;2023-04-28T01:13:43;95837.13;;;11.25;80.85
23229;BME280;11783;50.350;6.576;2023-04-28T01:16:09;95837.94;;;11.26;81.43
23229;BME280;11783;50.350;6.576;2023-04-28T01:18:35;95836.06;;;11.21;81.11
23229;BME280;11783;50.350;6.576;2023-04-28T01:21:00;95833.94;;;11.23;80.99
23229;BME280;11783;50.350;6.576;2023-04-28T01:23:28;95832.06;;;11.23;80.55
23229;BME280;11783;50.350;6.576;2023-04-28T01:25:53;95833.69;;;11.30;81.48
23229;BME280;11783;50.350;6.576;2023-04-28T01:28:18;95826.22;;;11.27;81.00
23229;BME280;11783;50.350;6.576;2023-04-28T01:30:44;95823.84;;;11.30;80.72
23229;BME280;11783;50.350;6.576;2023-04-28T01:33:09;95818.53;;;11.30;80.54
23229;BME280;11783;50.350;6.576;2023-04-28T01:35:34;95827.31;;;11.31;81.08
23229;BME280;11783;50.350;6.576;2023-04-28T01:38:00;95835.09;;;11.37;82.00
23229;BME280;11783;50.350;6.576;2023-04-28T01:40:26;95834.56;;;11.35;81.36
23229;BME280;11783;50.350;6.576;2023-04-28T01:42:51;95829.78;;;11.37;82.25
23229;BME280;11783;50.350;6.576;2023-04-28T01:45:16;95822.84;;;11.36;82.23
23229;BME280;11783;50.350;6.576;2023-04-28T01:47:42;95822.03;;;11.36;82.58
23229;BME280;11783;50.350;6.576;2023-04-28T01:50:07;95817.53;;;11.36;82.93
23229;BME280;11783;50.350;6.576;2023-04-28T01:52:33;95815.34;;;11.33;82.48
23229;BME280;11783;50.350;6.576;2023-04-28T01:54:58;95824.13;;;11.34;82.44
23229;BME280;11783;50.350;6.576;2023-04-28T01:57:24;95820.13;;;11.31;82.43
23229;BME280;11783;50.350;6.576;2023-04-28T01:59:50;95811.34;;;11.31;83.04
23229;BME280;11783;50.350;6.576;2023-04-28T02:02:15;95799.91;;;11.30;82.08
23229;BME280;11783;50.350;6.576;2023-04-28T02:04:40;95800.44;;;11.27;81.88
23229;BME280;11783;50.350;6.576;2023-04-28T02:07:06;95796.44;;;11.25;82.02
23229;BME280;11783;50.350;6.576;2023-04-28T02:09:32;95786.03;;;11.18;82.09
23229;BME280;11783;50.350;6.576;2023-04-28T02:11:58;95785.22;;;11.17;84.54
23229;BME280;11783;50.350;6.576;2023-04-28T02:14:27;95779.41;;;11.20;83.47
23229;BME280;11783;50.350;6.576;2023-04-28T02:16:52;95781.50;;;11.18;83.79
23229;BME280;11783;50.350;6.576;2023-04-28T02:19:17;95781.78;;;11.17;83.16
23229;BME280;11783;50.350;6.576;2023-04-28T02:21:43;95785.97;;;11.13;84.61
23229;BME280;11783;50.350;6.576;2023-04-28T02:24:08;95789.97;;;11.10;83.65
23229;BME280;11783;50.350;6.576;2023-04-28T02:26:34;95784.91;;;11.09;83.41
23229;BME280;11783;50.350;6.576;2023-04-28T02:29:00;95786.53;;;11.15;84.13
23229;BME280;11783;50.350;6.576;2023-04-28T02:31:25;95790.81;;;11.16;83.62
23229;BME280;11783;50.350;6.576;2023-04-28T02:33:51;95788.38;;;11.14;82.49
23229;BME280;11783;50.350;6.576;2023-04-28T02:36:17;95782.84;;;11.16;83.02
23229;BME280;11783;50.350;6.576;2023-04-28T02:38:42;95781.25;;;11.20;82.67
23229;BME280;11783;50.350;6.576;2023-04-28T02:41:07;95779.13;;;11.22;83.94
23229;BME280;11783;50.350;6.576;2023-04-28T02:43:34;95785.00;;;11.24;83.25
23229;BME280;11783;50.350;6.576;2023-04-28T02:46:02;95777.00;;;11.24;82.46
23229;BME280;11783;50.350;6.576;2023-04-28T02:48:27;95760.25;;;11.23;82.88
23229;BME280;11783;50.350;6.576;2023-04-28T02:50:53;95757.84;;;11.22;83.55
23229;BME280;11783;50.350;6.576;2023-04-28T02:53:19;95754.13;;;11.18;83.69
23229;BME280;11783;50.350;6.576;2023-04-28T02:55:45;95747.19;;;11.17;83.25
23229;BME280;11783;50.350;6.576;2023-04-28T02:58:10;95750.94;;;11.21;84.87
23229;BME280;11783;50.350;6.576;2023-04-28T03:00:36;95747.22;;;11.22;84.38
23229;BME280;11783;50.350;6.576;2023-04-28T03:03:01;95744.75;;;11.10;86.65
23229;BME280;11783;50.350;6.576;2023-04-28T03:05:26;95744.28;;;11.18;85.10
23229;BME280;11783;50.350;6.576;2023-04-28T03:07:52;95741.56;;;11.13;84.59
23229;BME280;11783;50.350;6.576;2023-04-28T03:10:18;95740.47;;;11.04;85.95
23229;BME280;11783;50.350;6.576;2023-04-28T03:12:43;95731.16;;;11.02;88.15
23229;BME280;11783;50.350;6.576;2023-04-28T03:15:09;95732.47;;;10.99;87.71
23229;BME280;11783;50.350;6.576;2023-04-28T03:17:35;95732.50;;;11.04;87.86
23229;BME280;11783;50.350;6.576;2023-04-28T03:20:03;95721.59;;;11.06;88.18
23229;BME280;11783;50.350;6.576;2023-04-28T03:22:29;95717.06;;;11.06;87.42
23229;BME280;11783;50.350;6.576;2023-04-28T03:24:54;95706.69;;;11.05;87.22
23229;BME280;11783;50.350;6.576;2023-04-28T03:27:19;95702.47;;;11.09;88.38
23229;BME280;11783;50.350;6.576;2023-04-28T03:29:45;95706.19;;;11.08;88.96
23229;BME280;11783;50.350;6.576;2023-04-28T03:32:10;95699.72;;;10.93;90.49
23229;BME280;11783;50.350;6.576;2023-04-28T03:34:36;95701.38;;;11.00;88.52
23229;BME280;11783;50.350;6.576;2023-04-28T03:37:01;95693.69;;;11.08;88.60
23229;BME280;11783;50.350;6.576;2023-04-28T03:39:27;95692.53;;;10.94;88.55
23229;BME280;11783;50.350;6.576;2023-04-28T03:41:52;95696.03;;;11.00;89.38
23229;BME280;11783;50.350;6.576;2023-04-28T03:44:17;95706.19;;;11.08;89.85
23229;BME280;11783;50.350;6.576;2023-04-28T03:46:43;95705.66;;;11.11;87.64
23229;BME280;11783;50.350;6.576;2023-04-28T03:49:08;95695.88;;;11.16;87.35
23229;BME280;11783;50.350;6.576;2023-04-28T03:51:33;95711.56;;;11.23;89.72
23229;BME280;11783;50.350;6.576;2023-04-28T03:53:59;95711.06;;;11.26;89.63
23229;BME280;11783;50.350;6.576;2023-04-28T03:56:24;95704.94;;;11.26;86.42
23229;BME280;11783;50.350;6.576;2023-04-28T03:58:50;95703.59;;;11.23;86.09
23229;BME280;11783;50.350;6.576;2023-04-28T04:01:15;95696.44;;;11.29;86.54
23229;BME280;11783;50.350;6.576;2023-04-28T04:03:41;95707.34;;;11.27;88.39
23229;BME280;11783;50.350;6.576;2023-04-28T04:06:06;95703.59;;;11.23;87.93
23229;BME280;11783;50.350;6.576;2023-04-28T04:08:32;95704.06;;;11.10;88.63
23229;BME280;11783;50.350;6.576;2023-04-28T04:10:57;95695.88;;;11.16;90.45
23229;BME280;11783;50.350;6.576;2023-04-28T04:13:23;95706.25;;;11.18;89.37
23229;BME280;11783;50.350;6.576;2023-04-28T05:10:23;95692.34;;;11.06;96.75
23229;BME280;11783;50.350;6.576;2023-04-28T05:12:49;95697.75;;;11.26;94.97
23229;BME280;11783;50.350;6.576;2023-04-28T05:15:14;95692.16;;;11.22;100.00
23229;BME280;11783;50.350;6.576;2023-04-28T05:17:40;95695.34;;;11.19;100.00
23229;BME280;11783;50.350;6.576;2023-04-28T05:20:06;95693.13;;;11.01;100.00
23229;BME280;11783;50.350;6.576;2023-04-28T05:22:31;95694.50;;;11.14;99.56
23229;BME280;11783;50.350;6.576;2023-04-28T05:24:57;95698.66;;;10.95;99.45
23229;BME280;11783;50.350;6.576;2023-04-28T05:27:22;95690.75;;;11.10;100.00
23229;BME280;11783;50.350;6.576;2023-04-28T05:29:47;95697.38;;;11.02;100.00
23229;BME280;11783;50.350;6.576;2023-04-28T05:32:13;95701.38;;;11.05;100.00
23229;BME280;11783;50.350;6.576;2023-04-28T05:34:38;95696.84;;;11.05;100.00
23229;BME280;11783;50.350;6.576;2023-04-28T05:37:03;95689.97;;;11.09;100.00
23229;BME280;11783;50.350;6.576;2023-04-28T05:39:29;95683.84;;;11.09;100.00
23229;BME280;11783;50.350;6.576;2023-04-28T05:41:54;95680.41;;;11.13;100.00
23229;BME280;11783;50.350;6.576;2023-04-28T05:44:19;95680.09;;;11.00;100.00
23229;BME280;11783;50.350;6.576;2023-04-28T05:46:45;95671.34;;;11.09;100.00
23229;BME280;11783;50.350;6.576;2023-04-28T05:49:10;95669.44;;;11.00;100.00
23229;BME280;11783;50.350;6.576;2023-04-28T05:51:36;95664.69;;;11.02;100.00
23229;BME280;11783;50.350;6.576;2023-04-28T05:54:02;95664.16;;;11.10;100.00
23229;BME280;11783;50.350;6.576;2023-04-28T05:56:27;95655.16;;;11.16;100.00
23229;BME280;11783;50.350;6.576;2023-04-28T05:58:53;95658.13;;;11.30;100.00
23229;BME280;11783;50.350;6.576;2023-04-28T06:01:18;95654.41;;;11.31;100.00
23229;BME280;11783;50.350;6.576;2023-04-28T06:03:43;95657.91;;;11.36;100.00
23229;BME280;11783;50.350;6.576;2023-04-28T06:06:09;95656.31;;;11.35;100.00
23229;BME280;11783;50.350;6.576;2023-04-28T06:08:35;95670.16;;;11.47;100.00
23229;BME280;11783;50.350;6.576;2023-04-28T06:11:01;95666.97;;;11.50;100.00
23229;BME280;11783;50.350;6.576;2023-04-28T06:13:26;95661.59;;;11.30;100.00
23229;BME280;11783;50.350;6.576;2023-04-28T06:15:52;95669.03;;;11.33;100.00
23229;BME280;11783;50.350;6.576;2023-04-28T06:18:17;95665.88;;;11.41;100.00
23229;BME280;11783;50.350;6.576;2023-04-28T06:20:42;95666.63;;;11.32;100.00
23229;BME280;11783;50.350;6.576;2023-04-28T06:23:08;95660.81;;;11.35;100.00
23229;BME280;11783;50.350;6.576;2023-04-28T06:25:36;95669.88;;;11.49;100.00
23229;BME280;11783;50.350;6.576;2023-04-28T06:28:02;95666.97;;;11.50;100.00
23229;BME280;11783;50.350;6.576;2023-04-28T06:30:27;95660.88;;;11.60;100.00
23229;BME280;11783;50.350;6.576;2023-04-28T06:32:53;95653.13;;;11.48;100.00
23229;BME280;11783;50.350;6.576;2023-04-28T06:35:20;95656.34;;;11.61;100.00
23229;BME280;11783;50.350;6.576;2023-04-28T06:37:46;95656.09;;;11.67;100.00
23229;BME280;11783;50.350;6.576;2023-04-28T06:40:11;95656.91;;;11.68;100.00
23229;BME280;11783;50.350;6.576;2023-04-28T06:42:36;95661.69;;;11.61;100.00
23229;BME280;11783;50.350;6.576;2023-04-28T06:45:02;95664.69;;;11.79;100.00
23229;BME280;11783;50.350;6.576;2023-04-28T06:47:27;95666.00;;;11.82;100.00
23229;BME280;11783;50.350;6.576;2023-04-28T06:49:53;95656.41;;;11.86;100.00
23229;BME280;11783;50.350;6.576;2023-04-28T06:52:18;95675.63;;;12.03;100.00
23229;BME280;11783;50.350;6.576;2023-04-28T06:54:46;95681.50;;;12.16;100.00
23229;BME280;11783;50.350;6.576;2023-04-28T06:57:11;95689.75;;;12.34;100.00
23229;BME280;11783;50.350;6.576;2023-04-28T06:59:37;95689.47;;;12.36;100.00
23229;BME280;11783;50.350;6.576;2023-04-28T07:02:02;95688.94;;;12.13;100.00
23229;BME280;11783;50.350;6.576;2023-04-28T07:04:27;95701.72;;;12.06;100.00
23229;BME280;11783;50.350;6.576;2023-04-28T07:06:53;95701.22;;;12.15;100.00
23229;BME280;11783;50.350;6.576;2023-04-28T07:09:18;95704.91;;;12.08;100.00
23229;BME280;11783;50.350;6.576;2023-04-28T07:11:44;95699.88;;;12.12;100.00
23229;BME280;11783;50.350;6.576;2023-04-28T07:14:09;95699.34;;;12.15;100.00
23229;BME280;11783;50.350;6.576;2023-04-28T07:16:35;95701.72;;;12.17;100.00
23229;BME280;11783;50.350;6.576;2023-04-28T07:19:00;95707.06;;;12.17;100.00
23229;BME280;11783;50.350;6.576;2023-04-28T07:21:25;95714.78;;;12.13;100.00
23229;BME280;11783;50.350;6.576;2023-04-28T07:23:52;95716.91;;;12.16;100.00
23229;BME280;11783;50.350;6.576;2023-04-28T07:26:21;95720.91;;;12.19;100.00
23229;BME280;11783;50.350;6.576;2023-04-28T07:28:46;95710.78;;;12.16;100.00
23229;BME280;11783;50.350;6.576;2023-04-28T07:31:12;95710.53;;;12.17;100.00
23229;BME280;11783;50.350;6.576;2023-04-28T07:33:37;95706.00;;;12.23;100.00
23229;BME280;11783;50.350;6.576;2023-04-28T07:36:03;95708.41;;;12.09;100.00
23229;BME280;11783;50.350;6.576;2023-04-28T07:38:28;95712.13;;;12.18;100.00
23229;BME280;11783;50.350;6.576;2023-04-28T07:40:53;95712.16;;;12.28;100.00
23229;BME280;11783;50.350;6.576;2023-04-28T07:43:19;95716.69;;;12.28;100.00
23229;BME280;11783;50.350;6.576;2023-04-28T07:45:44;95710.53;;;12.32;100.00
23229;BME280;11783;50.350;6.576;2023-04-28T07:48:13;95708.41;;;12.29;100.00
23229;BME280;11783;50.350;6.576;2023-04-28T07:50:38;95708.16;;;12.31;100.00
23229;BME280;11783;50.350;6.576;2023-04-28T07:53:04;95710.28;;;12.29;100.00
23229;BME280;11783;50.350;6.576;2023-04-28T07:55:29;95707.59;;;12.34;100.00
23229;BME280;11783;50.350;6.576;2023-04-28T07:57:55;95714.53;;;12.45;100.00
23229;BME280;11783;50.350;6.576;2023-04-28T08:00:23;95706.28;;;12.47;100.00
23229;BME280;11783;50.350;6.576;2023-04-28T08:02:48;95698.81;;;12.54;100.00
23229;BME280;11783;50.350;6.576;2023-04-28T08:05:14;95695.84;;;12.60;100.00
23229;BME280;11783;50.350;6.576;2023-04-28T08:07:39;95705.44;;;12.71;100.00
23229;BME280;11783;50.350;6.576;2023-04-28T08:10:10;95712.63;;;12.81;100.00
23229;BME280;11783;50.350;6.576;2023-04-28T08:12:36;95717.97;;;12.81;100.00
23229;BME280;11783;50.350;6.576;2023-04-28T08:15:02;95707.56;;;12.90;100.00
23229;BME280;11783;50.350;6.576;2023-04-28T08:17:28;95710.97;;;13.00;100.00
23229;BME280;11783;50.350;6.576;2023-04-28T08:19:53;95715.00;;;13.03;100.00
23229;BME280;11783;50.350;6.576;2023-04-28T08:22:18;95713.34;;;13.17;100.00
23229;BME280;11783;50.350;6.576;2023-04-28T08:24:44;95715.25;;;13.22;100.00
23229;BME280;11783;50.350;6.576;2023-04-28T08:27:09;95712.78;;;13.36;100.00
23229;BME280;11783;50.350;6.576;2023-04-28T08:29:35;95721.88;;;13.40;100.00
23229;BME280;11783;50.350;6.576;2023-04-28T08:32:00;95723.72;;;13.44;100.00
23229;BME280;11783;50.350;6.576;2023-04-28T08:34:26;95728.47;;;13.52;100.00
23229;BME280;11783;50.350;6.576;2023-04-28T08:36:52;95732.78;;;13.43;100.00
23229;BME280;11783;50.350;6.576;2023-04-28T08:39:17;95733.53;;;13.54;100.00
23229;BME280;11783;50.350;6.576;2023-04-28T08:41:44;95731.13;;;13.52;100.00
23229;BME280;11783;50.350;6.576;2023-04-28T08:44:10;95735.16;;;13.50;100.00
23229;BME280;11783;50.350;6.576;2023-04-28T08:46:40;95737.03;;;13.49;100.00
23229;BME280;11783;50.350;6.576;2023-04-28T08:49:14;95737.28;;;13.53;100.00
23229;BME280;11783;50.350;6.576;2023-04-28T08:52:00;95742.63;;;13.53;100.00
23229;BME280;11783;50.350;6.576;2023-04-28T08:54:29;95735.72;;;13.47;100.00
23229;BME280;11783;50.350;6.576;2023-04-28T08:56:56;95736.78;;;13.46;100.00
23229;BME280;11783;50.350;6.576;2023-04-28T08:59:22;95745.59;;;13.46;100.00
23229;BME280;11783;50.350;6.576;2023-04-28T09:01:48;95747.41;;;13.56;100.00
23229;BME280;11783;50.350;6.576;2023-04-28T09:04:16;95743.09;;;13.65;100.00
23229;BME280;11783;50.350;6.576;2023-04-28T09:06:41;95742.81;;;13.77;100.00
23229;BME280;11783;50.350;6.576;2023-04-28T09:09:26;95747.66;;;13.64;100.00
23229;BME280;11783;50.350;6.576;2023-04-28T09:11:57;95745.72;;;13.80;100.00
23229;BME280;11783;50.350;6.576;2023-04-28T09:14:24;95751.00;;;13.90;100.00
23229;BME280;11783;50.350;6.576;2023-04-28T09:16:51;95753.91;;;13.94;100.00
23229;BME280;11783;50.350;6.576;2023-04-28T09:19:17;95746.97;;;13.93;100.00
23229;BME280;11783;50.350;6.576;2023-04-28T09:21:53;95744.53;;;14.02;100.00
23229;BME280;11783;50.350;6.576;2023-04-28T09:24:42;95752.53;;;14.02;100.00
23229;BME280;11783;50.350;6.576;2023-04-28T09:27:09;95754.28;;;14.21;100.00
23229;BME280;11783;50.350;6.576;2023-04-28T09:29:37;95752.13;;;14.23;100.00
23229;BME280;11783;50.350;6.576;2023-04-28T09:34:47;95754.53;;;14.25;100.00
23229;BME280;11783;50.350;6.576;2023-04-28T09:37:33;95756.38;;;14.30;100.00
23229;BME280;11783;50.350;6.576;2023-04-28T09:40:07;95756.25;;;14.50;100.00
23229;BME280;11783;50.350;6.576;2023-04-28T09:42:36;95754.25;;;14.66;100.00
23229;BME280;11783;50.350;6.576;2023-04-28T09:45:09;95753.56;;;14.84;100.00
23229;BME280;11783;50.350;6.576;2023-04-28T09:47:40;95741.94;;;14.99;100.00
23229;BME280;11783;50.350;6.576;2023-04-28T09:50:08;95742.66;;;15.09;100.00
23229;BME280;11783;50.350;6.576;2023-04-28T09:52:35;95738.63;;;15.36;100.00
23229;BME280;11783;50.350;6.576;2023-04-28T09:55:04;95741.41;;;15.50;100.00
23229;BME280;11783;50.350;6.576;2023-04-28T09:57:31;95740.50;;;15.59;100.00
23229;BME280;11783;50.350;6.576;2023-04-28T09:59:58;95740.00;;;15.81;100.00
23229;BME280;11783;50.350;6.576;2023-04-28T10:02:24;95743.31;;;15.92;100.00
23229;BME280;11783;50.350;6.576;2023-04-28T10:04:51;95749.78;;;15.91;100.00
23229;BME280;11783;50.350;6.576;2023-04-28T10:07:20;95757.38;;;15.84;96.17
23229;BME280;11783;50.350;6.576;2023-04-28T10:09:47;95744.59;;;15.75;96.31
23229;BME280;11783;50.350;6.576;2023-04-28T10:12:15;95749.97;;;15.94;98.44
23229;BME280;11783;50.350;6.576;2023-04-28T10:14:41;95741.25;;;16.08;96.86
23229;BME280;11783;50.350;6.576;2023-04-28T10:17:07;95745.59;;;16.22;97.91
23229;BME280;11783;50.350;6.576;2023-04-28T10:19:33;95739.22;;;16.18;93.85
23229;BME280;11783;50.350;6.576;2023-04-28T10:27:29;95736.38;;;16.28;93.80
23229;BME280;11783;50.350;6.576;2023-04-28T10:30:15;95737.97;;;16.29;95.33
23229;BME280;11783;50.350;6.576;2023-04-28T10:32:41;95738.78;;;16.30;93.19
23229;BME280;11783;50.350;6.576;2023-04-28T10:38:08;95732.19;;;16.41;96.32
23229;BME280;11783;50.350;6.576;2023-04-28T10:43:01;95729.56;;;16.36;94.89
23229;BME280;11783;50.350;6.576;2023-04-28T10:48:18;95722.44;;;16.45;95.21
23229;BME280;11783;50.350;6.576;2023-04-28T10:56:19;95725.25;;;16.54;96.02
23229;BME280;11783;50.350;6.576;2023-04-28T10:58:46;95718.44;;;16.61;93.79
23229;BME280;11783;50.350;6.576;2023-04-28T11:03:49;95718.88;;;16.69;94.11
23229;BME280;11783;50.350;6.576;2023-04-28T11:06:25;95722.16;;;16.47;93.75
23229;BME280;11783;50.350;6.576;2023-04-28T11:11:21;95719.66;;;16.37;92.74
23229;BME280;11783;50.350;6.576;2023-04-28T11:13:48;95719.56;;;16.42;92.75
23229;BME280;11783;50.350;6.576;2023-04-28T11:16:16;95721.94;;;16.43;96.85
23229;BME280;11783;50.350;6.576;2023-04-28T11:18:52;95720.72;;;16.35;96.97
23229;BME280;11783;50.350;6.576;2023-04-28T11:21:19;95713.09;;;16.43;100.00
23229;BME280;11783;50.350;6.576;2023-04-28T11:23:45;95708.25;;;16.45;100.00
23229;BME280;11783;50.350;6.576;2023-04-28T11:26:10;95708.53;;;16.43;100.00
23229;BME280;11783;50.350;6.576;2023-04-28T11:28:45;95710.56;;;16.32;100.00
23229;BME280;11783;50.350;6.576;2023-04-28T11:31:12;95705.06;;;16.43;100.00
23229;BME280;11783;50.350;6.576;2023-04-28T11:33:38;95696.31;;;16.37;100.00
23229;BME280;11783;50.350;6.576;2023-04-28T11:36:04;95706.44;;;16.40;100.00
23229;BME280;11783;50.350;6.576;2023-04-28T11:38:42;95703.00;;;16.21;99.55
23229;BME280;11783;50.350;6.576;2023-04-28T11:41:07;95702.81;;;16.31;100.00
23229;BME280;11783;50.350;6.576;2023-04-28T11:43:32;95695.50;;;16.37;99.36
23229;BME280;11783;50.350;6.576;2023-04-28T11:45:58;95691.16;;;16.41;97.71
23229;BME280;11783;50.350;6.576;2023-04-28T11:48:23;95702.19;;;16.39;99.02
23229;BME280;11783;50.350;6.576;2023-04-28T11:50:49;95693.25;;;16.44;98.72
23229;BME280;11783;50.350;6.576;2023-04-28T11:53:14;95694.03;;;16.44;97.56
23229;BME280;11783;50.350;6.576;2023-04-28T11:55:40;95707.75;;;16.43;95.88
23229;BME280;11783;50.350;6.576;2023-04-28T11:58:21;95710.78;;;16.36;97.00
23229;BME280;11783;50.350;6.576;2023-04-28T12:01:07;95696.69;;;16.63;100.00
23229;BME280;11783;50.350;6.576;2023-04-28T12:03:37;95706.22;;;16.88;93.28
23229;BME280;11783;50.350;6.576;2023-04-28T12:06:06;95697.31;;;17.20;96.66
23229;BME280;11783;50.350;6.576;2023-04-28T12:08:31;95684.16;;;17.46;95.15
23229;BME280;11783;50.350;6.576;2023-04-28T12:11:12;95687.25;;;17.53;91.21
23229;BME280;11783;50.350;6.576;2023-04-28T12:13:38;95686.97;;;17.54;90.12
23229;BME280;11783;50.350;6.576;2023-04-28T12:16:05;95688.94;;;17.76;90.72
23229;BME280;11783;50.350;6.576;2023-04-28T12:18:35;95692.56;;;17.72;91.02
23229;BME280;11783;50.350;6.576;2023-04-28T12:21:01;95689.72;;;17.91;91.31
23229;BME280;11783;50.350;6.576;2023-04-28T12:23:31;95687.59;;;18.01;87.05
23229;BME280;11783;50.350;6.576;2023-04-28T12:25:57;95685.03;;;17.96;87.67
23229;BME280;11783;50.350;6.576;2023-04-28T12:28:23;95689.22;;;17.89;89.51
23229;BME280;11783;50.350;6.576;2023-04-28T12:30:49;95680.16;;;18.21;86.91
23229;BME280;11783;50.350;6.576;2023-04-28T12:33:25;95671.56;;;18.55;83.43
23229;BME280;11783;50.350;6.576;2023-04-28T12:35:51;95679.16;;;18.75;81.61
23229;BME280;11783;50.350;6.576;2023-04-28T12:38:19;95671.00;;;18.89;82.81
23229;BME280;11783;50.350;6.576;2023-04-28T12:40:44;95682.03;;;18.79;78.52
23229;BME280;11783;50.350;6.576;2023-04-28T12:43:10;95675.84;;;18.56;79.05
23229;BME280;11783;50.350;6.576;2023-04-28T12:45:35;95672.09;;;18.88;81.47
23229;BME280;11783;50.350;6.576;2023-04-28T12:48:00;95680.88;;;19.02;81.41
23229;BME280;11783;50.350;6.576;2023-04-28T12:50:26;95682.25;;;18.91;76.38
23229;BME280;11783;50.350;6.576;2023-04-28T12:52:56;95683.00;;;18.83;75.37
23229;BME280;11783;50.350;6.576;2023-04-28T12:55:22;95691.56;;;18.85;73.38
23229;BME280;11783;50.350;6.576;2023-04-28T12:57:47;95666.19;;;19.08;75.43
23229;BME280;11783;50.350;6.576;2023-04-28T13:00:13;95665.34;;;19.39;76.83
23229;BME280;11783;50.350;6.576;2023-04-28T13:02:40;95669.13;;;19.77;73.24
23229;BME280;11783;50.350;6.576;2023-04-28T13:05:06;95692.47;;;19.99;67.78
23229;BME280;11783;50.350;6.576;2023-04-28T13:07:32;95669.47;;;19.93;69.85
23229;BME280;11783;50.350;6.576;2023-04-28T13:09:58;95676.13;;;20.21;69.05
23229;BME280;11783;50.350;6.576;2023-04-28T13:12:23;95675.50;;;20.24;67.32
23229;BME280;11783;50.350;6.576;2023-04-28T13:14:48;95672.31;;;20.40;67.97
23229;BME280;11783;50.350;6.576;2023-04-28T13:17:14;95669.94;;;20.55;70.12
23229;BME280;11783;50.350;6.576;2023-04-28T13:19:40;95666.09;;;20.74;66.53
23229;BME280;11783;50.350;6.576;2023-04-28T13:22:05;95675.16;;;20.78;64.87
23229;BME280;11783;50.350;6.576;2023-04-28T13:24:31;95661.50;;;20.83;65.36
23229;BME280;11783;50.350;6.576;2023-04-28T13:27:00;95665.28;;;20.91;64.05
23229;BME280;11783;50.350;6.576;2023-04-28T13:29:27;95661.25;;;21.05;64.06
23229;BME280;11783;50.350;6.576;2023-04-28T13:31:52;95651.72;;;21.08;63.10
23229;BME280;11783;50.350;6.576;2023-04-28T13:34:18;95661.88;;;21.11;61.81
23229;BME280;11783;50.350;6.576;2023-04-28T13:36:44;95656.19;;;21.04;60.38
23229;BME280;11783;50.350;6.576;2023-04-28T13:39:09;95662.53;;;21.08;60.06
23229;BME280;11783;50.350;6.576;2023-04-28T13:41:38;95657.44;;;21.06;59.26
23229;BME280;11783;50.350;6.576;2023-04-28T13:44:04;95646.41;;;21.29;62.37
23229;BME280;11783;50.350;6.576;2023-04-28T13:46:29;95647.16;;;21.67;62.58
23229;BME280;11783;50.350;6.576;2023-04-28T13:48:55;95651.75;;;21.96;62.96
23229;BME280;11783;50.350;6.576;2023-04-28T13:51:21;95651.91;;;21.70;59.59
23229;BME280;11783;50.350;6.576;2023-04-28T13:53:47;95646.09;;;21.60;59.02
23229;BME280;11783;50.350;6.576;2023-04-28T13:56:12;95659.25;;;21.40;57.27
23229;BME280;11783;50.350;6.576;2023-04-28T13:58:37;95654.59;;;21.03;60.56
23229;BME280;11783;50.350;6.576;2023-04-28T14:01:03;95659.72;;;20.87;61.89
23229;BME280;11783;50.350;6.576;2023-04-28T14:03:28;95639.09;;;20.82;60.02
23229;BME280;11783;50.350;6.576;2023-04-28T14:05:55;95663.13;;;20.41;60.26
23229;BME280;11783;50.350;6.576;2023-04-28T14:08:22;95661.84;;;19.95;70.62
23229;BME280;11783;50.350;6.576;2023-04-28T14:10:48;95658.03;;;20.22;74.09
23229;BME280;11783;50.350;6.576;2023-04-28T14:13:14;95661.53;;;20.57;73.41